Ludington, MI

4:42 AM EST on November 15, 2019 (GMT -0500)
Mason County

Weather History for KLDM - June, 2019

Change the Weather History Date:

Saturday, June 8, 2019

  Actual Average Record
Temperature  
Mean Temperature 64 °F -  
Max Temperature 83 °F 75 °F 90 °F (1968)
Min Temperature 46 °F 51 °F 32 °F (1949)
Growing Degree Days 14 (Base 50)    
Moisture  
Dew Point 49 °F    
Average Humidity 56    
Maximum Humidity 93    
Minimum Humidity 24    
Precipitation  
Precipitation 0.00 in - - ()
Sea Level Pressure  
Sea Level Pressure 30.06 in    
Wind  
Wind Speed 4 mph (ESE)    
Max Wind Speed 14 mph    
Max Gust Speed 18 mph    
Visibility 10 miles    
Events      
Averages and records for this station are not official NWS values.
T = Trace of Precipitation, MM = Missing Value Source: NWS Daily Summary

Daily Weather History Graph

Daily Weather History Graph

Search for Another Location

Airport or City:

Astronomy

Jun. 08, 2019 Rise Set
Actual Time 6:03 AM EDT 9:26 PM EDT
Civil Twilight 5:27 AM EDT 10:02 PM EDT
Nautical Twilight 4:40 AM EDT 10:49 PM EDT
Astronomical Twilight 3:42 AM EDT 11:48 PM EDT
Moon 11:35 AM EDT (6/8) 1:23 AM EDT (6/8)
Length of Visible Light 16h 34m
Length of Day
15h 23m
Waxing Crescent, 32% of the Moon is Illuminated
Jun 8
Waxing Crescent
Jun 10
First Quarter
Jun 17
Full
Jun 25
Last Quarter
Jul 2
New

Hourly Weather History & Observations

Time (EDT) Temp. Dew Point Humidity Pressure Visibility Wind Dir Wind Speed Gust Speed Precip Events Conditions
12:15 AM 57.2 °F 52.2 °F 83% 30.05 in 10.0 mi Calm Calm - N/A   Clear
12:16 AM 57.2 °F 52.2 °F 83% 30.05 in 10.0 mi Calm Calm - N/A   Clear
12:39 AM 57.6 °F 52.0 °F 82% 30.05 in 10.0 mi Calm Calm - N/A   Clear
12:57 AM 55.9 °F 51.4 °F 85% 30.05 in 10.0 mi Calm Calm - N/A   Clear
1:15 AM 56.8 °F 49.5 °F 76% 30.05 in 10.0 mi East 3.5 mph - N/A   Clear
1:35 AM 56.5 °F 50.2 °F 79% 30.05 in 10.0 mi Calm Calm - N/A   Clear
1:55 AM 54.5 °F 49.8 °F 84% 30.05 in 10.0 mi Calm Calm - N/A   Clear
1:59 AM 54.9 °F 50.4 °F 85% 30.05 in 10.0 mi Calm Calm - N/A   Clear
2:18 AM 53.8 °F 50.2 °F 88% 30.05 in 10.0 mi Calm Calm - N/A   Clear
2:36 AM 53.4 °F 48.9 °F 85% 30.05 in 10.0 mi Calm Calm - N/A   Clear
2:55 AM 51.1 °F 47.5 °F 87% 30.05 in 10.0 mi East 3.5 mph - N/A   Clear
3:15 AM 53.1 °F 47.7 °F 82% 30.05 in 10.0 mi Calm Calm - N/A   Clear
3:39 AM 52.3 °F 48.4 °F 86% 30.05 in 10.0 mi Calm Calm - N/A   Clear
3:57 AM 48.9 °F 46.6 °F 92% 30.05 in 10.0 mi Calm Calm - N/A   Clear
4:16 AM 50.2 °F 46.6 °F 87% 30.06 in 10.0 mi East 3.5 mph - N/A   Clear
4:35 AM 51.8 °F 46.4 °F 82% 30.06 in 10.0 mi Calm Calm - N/A   Clear
4:55 AM 50.9 °F 46.2 °F 84% 30.06 in 10.0 mi East 3.5 mph - N/A   Clear
5:18 AM 52.0 °F 45.5 °F 79% 30.06 in 10.0 mi ESE 3.5 mph - N/A   Clear
5:36 AM 52.2 °F 45.5 °F 78% 30.07 in 10.0 mi East 4.6 mph - N/A   Clear
5:55 AM 50.4 °F 45.3 °F 83% 30.07 in 10.0 mi Calm Calm - N/A   Clear
6:15 AM 46.4 °F 44.2 °F 92% 30.07 in 10.0 mi Calm Calm - N/A   Clear
6:39 AM 47.5 °F 45.7 °F 93% 30.08 in 10.0 mi Calm Calm - N/A   Clear
6:57 AM 48.2 °F 46.4 °F 93% 30.09 in 10.0 mi Calm Calm - N/A   Clear
7:15 AM 53.2 °F 47.3 °F 80% 30.10 in 10.0 mi Calm Calm - N/A   Clear
7:16 AM 53.4 °F 47.3 °F 80% 30.10 in 10.0 mi Calm Calm - N/A   Clear
7:35 AM 55.8 °F 48.9 °F 78% 30.10 in 10.0 mi Calm Calm - N/A   Clear
7:55 AM 58.5 °F 49.6 °F 72% 30.10 in 10.0 mi East 3.5 mph - N/A   Clear
8:18 AM 60.8 °F 48.7 °F 64% 30.10 in 10.0 mi East 4.6 mph - N/A   Clear
8:35 AM 62.6 °F 49.5 °F 62% 30.11 in 10.0 mi East 3.5 mph - N/A   Clear
8:55 AM 64.9 °F 49.5 °F 57% 30.11 in 10.0 mi East 6.9 mph - N/A   Clear
8:56 AM 65.1 °F 49.5 °F 57% 30.11 in 10.0 mi East 8.1 mph - N/A   Clear
9:15 AM 66.9 °F 49.6 °F 54% 30.11 in 10.0 mi ESE 8.1 mph - N/A   Clear
9:39 AM 68.7 °F 50.5 °F 52% 30.11 in 10.0 mi East 6.9 mph - N/A   Clear
9:57 AM 70.3 °F 50.5 °F 49% 30.11 in 10.0 mi East 8.1 mph - N/A   Clear
10:15 AM 72.1 °F 50.5 °F 46% 30.11 in 10.0 mi East 6.9 mph - N/A   Clear
10:16 AM 72.1 °F 50.4 °F 46% 30.11 in 10.0 mi East 5.8 mph - N/A   Clear
10:35 AM 73.6 °F 50.7 °F 45% 30.11 in 10.0 mi ESE 5.8 mph - N/A   Clear
10:55 AM 75.0 °F 51.3 °F 43% 30.10 in 10.0 mi ESE 5.8 mph - N/A   Clear
11:18 AM 76.5 °F 50.7 °F 40% 30.10 in 10.0 mi SE 8.1 mph - N/A   Clear
11:36 AM 77.9 °F 52.3 °F 41% 30.10 in 10.0 mi East 9.2 mph - N/A   Clear
11:55 AM 78.6 °F 50.2 °F 37% 30.10 in 10.0 mi East 11.5 mph 16.1 mph N/A   Clear
11:56 AM 78.6 °F 50.2 °F 37% 30.10 in 10.0 mi ESE 10.4 mph 16.1 mph N/A   Clear
12:15 PM 79.3 °F 49.6 °F 35% 30.09 in 10.0 mi East 9.2 mph 16.1 mph N/A   Clear
12:39 PM 79.9 °F 48.4 °F 33% 30.09 in 10.0 mi SE 10.4 mph 16.1 mph N/A   Clear
12:57 PM 80.8 °F 47.7 °F 31% 30.08 in 10.0 mi SE 9.2 mph - N/A   Clear
1:15 PM 81.5 °F 46.8 °F 29% 30.08 in 10.0 mi East 11.5 mph - N/A   Clear
1:16 PM 81.5 °F 46.8 °F 29% 30.08 in 10.0 mi East 12.7 mph - N/A   Clear
1:35 PM 81.7 °F 44.2 °F 27% 30.07 in 10.0 mi ESE 11.5 mph 16.1 mph N/A   Clear
1:36 PM 81.7 °F 44.8 °F 27% 30.07 in 10.0 mi ESE 11.5 mph - N/A   Clear
1:55 PM 82.6 °F 45.3 °F 27% 30.07 in 10.0 mi SE 9.2 mph - N/A   Clear
2:18 PM 82.9 °F 47.5 °F 29% 30.06 in 10.0 mi ESE 8.1 mph - N/A   Clear
2:36 PM 83.1 °F 45.3 °F 26% 30.05 in 10.0 mi ESE 8.1 mph - N/A   Clear
2:55 PM 82.6 °F 44.2 °F 26% 30.05 in 10.0 mi ESE 8.1 mph 16.1 mph N/A   Clear
2:56 PM 82.4 °F 44.6 °F 26% 30.05 in 10.0 mi SE 10.4 mph 16.1 mph N/A   Clear
3:15 PM 83.7 °F 43.7 °F 24% 30.05 in 10.0 mi ESE 13.8 mph 18.4 mph N/A   Clear
3:39 PM 82.8 °F 44.6 °F 26% 30.05 in 10.0 mi ESE 11.5 mph - N/A   Clear
3:57 PM 83.7 °F 44.6 °F 25% 30.04 in 10.0 mi ESE 10.4 mph 17.3 mph N/A   Clear
4:15 PM 83.8 °F 44.4 °F 25% 30.04 in 10.0 mi ESE 11.5 mph 18.4 mph N/A   Clear
4:16 PM 83.7 °F 44.6 °F 25% 30.04 in 10.0 mi ESE 10.4 mph 18.4 mph N/A   Clear
4:35 PM 82.8 °F 46.0 °F 28% 30.04 in 10.0 mi ESE 12.7 mph 18.4 mph N/A   Clear
4:55 PM 81.9 °F 47.5 °F 30% 30.03 in 10.0 mi SE 9.2 mph - N/A   Clear
5:18 PM 83.5 °F 48.0 °F 29% 30.03 in 10.0 mi SE 11.5 mph - N/A   Clear
5:36 PM 82.9 °F 48.9 °F 31% 30.02 in 10.0 mi SE 9.2 mph - N/A   Clear
5:55 PM 82.4 °F 48.2 °F 30% 30.02 in 10.0 mi ESE 13.8 mph 17.3 mph N/A   Clear
6:15 PM 80.6 °F 47.5 °F 31% 30.02 in 10.0 mi ESE 9.2 mph - N/A   Clear
6:39 PM 80.8 °F 49.5 °F 33% 30.02 in 10.0 mi East 9.2 mph - N/A   Clear
6:57 PM 79.9 °F 48.7 °F 34% 30.02 in 10.0 mi ESE 9.2 mph - N/A   Clear
7:15 PM 79.3 °F 50.7 °F 37% 30.02 in 10.0 mi ESE 9.2 mph - N/A   Clear
7:16 PM 79.5 °F 50.4 °F 36% 30.02 in 10.0 mi ESE 9.2 mph - N/A   Clear
7:35 PM 79.5 °F 49.6 °F 35% 30.02 in 10.0 mi ESE 8.1 mph - N/A   Clear
7:36 PM 79.3 °F 49.6 °F 35% 30.02 in 10.0 mi ESE 6.9 mph - N/A   Clear
7:55 PM 79.5 °F 50.2 °F 36% 30.02 in 10.0 mi ESE 9.2 mph - N/A   Clear
8:18 PM 77.2 °F 51.8 °F 41% 30.02 in 10.0 mi East 5.8 mph - N/A   Clear
8:36 PM 75.2 °F 53.8 °F 47% 30.02 in 10.0 mi East 5.8 mph - N/A   Clear
8:55 PM 73.4 °F 53.4 °F 49% 30.02 in 10.0 mi East 4.6 mph - N/A   Clear
8:56 PM 73.2 °F 53.4 °F 50% 30.02 in 10.0 mi East 4.6 mph - N/A   Clear
9:15 PM 69.6 °F 53.8 °F 57% 30.02 in 10.0 mi East 3.5 mph - N/A   Clear
9:39 PM 68.5 °F 54.3 °F 60% 30.02 in 10.0 mi Calm Calm - N/A   Clear
9:57 PM 64.9 °F 55.2 °F 71% 30.02 in 10.0 mi Calm Calm - N/A   Clear
10:15 PM 62.6 °F 54.7 °F 75% 30.02 in 10.0 mi East 4.6 mph - N/A   Clear
10:16 PM 62.4 °F 54.7 °F 76% 30.02 in 10.0 mi East 4.6 mph - N/A   Clear
10:35 PM 63.3 °F 53.6 °F 71% 30.03 in 10.0 mi Calm Calm - N/A   Clear
10:55 PM 65.7 °F 54.0 °F 66% 30.03 in 10.0 mi Calm Calm - N/A   Clear
11:18 PM 61.3 °F 53.8 °F 76% 30.04 in 10.0 mi Calm Calm - N/A   Clear
11:36 PM 58.8 °F 53.2 °F 82% 30.04 in 10.0 mi Calm Calm - N/A   Clear
11:55 PM 60.6 °F 52.5 °F 75% 30.04 in 10.0 mi East 3.5 mph - N/A   Clear
11:56 PM 60.3 °F 52.5 °F 76% 30.04 in 10.0 mi East 3.5 mph - N/A   Clear